Knob Noster, MO

11:21 AM CST on February 08, 2016 (GMT -0600)
Whiteman Air Force Base | | Change Station
CLOSE
Current Station
Airport
Location: Whiteman AFB,
Elevation: 869 ft
Nearby Weather Stations
Active Advisory: Wind Advisory

Elev 869 ft 38.73 °N, 93.55 °W | Updated 23 minutes ago

Light Snow
Light Snow
30 °F
Feels Like 16 °F
N
25
Wind Variable Wind from NW
Gusts 37 mph

Today
High -- | Low -- °F
--% Chance of Precip.
Yesterday
High -- | Low -- °F
Precip. -- in
Pressure 30.04 in
Visibility 6.0 miles
Clouds Mostly Cloudy 2600 ft
Overcast 5500 ft
Windchill 16 °F
Dew Point 17 °F
Humidity 60%
Rainfall 0.00 in
Snow Depth Not available.
7:13 AM 5:43 PM
New Moon, 0% visible
METAR KSZL 081658Z 32022G32KT 6SM -SN BKN026 OVC055 M01/M08 A3001 RMK AO2A PK WND 01039/49 SLP173 P0000 T10131081 $
Pressure 30.04 in
Visibility 6.0 miles
Clouds Mostly Cloudy 2600 ft
Overcast 5500 ft
Windchill 16 °F
Dew Point 17 °F
Humidity 60%
Rainfall 0.00 in
Snow Depth Not available.
7:13 AM 5:43 PM
New Moon, 0% visible
METAR KSZL 081658Z 32022G32KT 6SM -SN BKN026 OVC055 M01/M08 A3001 RMK AO2A PK WND 01039/49 SLP173 P0000 T10131081 $

10-Day Weather Forecast

Almanac

Astronomy

Feb. 08, 2016 Rise Set
Actual Time
Civil Twilight
Nautical Twilight
Astronomical Twilight
Moon
Length of Visible Light
Length of Day
Tomorrow will be .
, % of the Moon is Illuminated

Today's Extremes

State Highs State Lows

Community

WunderPhotos

Upload Photos

1,891,471 photos uploaded!

WunderBlog® & News

Nearby

Air Quality

  Air Quality AQ Index Pollutant
Not available.

Snow Depth

Station Depth Elevation

Earthquake Activity

City Distance Mag. Time & Date
Minimum magnitude displayed is 2.5.

Coastal Water Temperatures

Place Temperature

Stations

Nearby Weather Stations

Station Location Temp. Windchill Dew Point Humidity Wind Precip. Elev Updated Type
                   

Watches & Warnings

Wind Advisory
Issued: 4:50 AM CST Feb. 8, 2016 – National Weather Service

... Wind Advisory remains in effect from 8 am this morning to 6 PM
CST this evening...

* timing... through this evening.

* Winds... sustained winds around 30 to 35 mph with gusts in excess
of 45 mph are expected.

* Impacts... strong Crosswinds on highways could make travel
difficult... particularly for high profile vehicles. In
addition... light snow this morning combined with strong winds may
periodically reduce visibilities.

Precautionary/preparedness actions...

A Wind Advisory means that winds of 35 mph are expected. Winds
this strong can make driving difficult... especially for high
profile vehicles. Use extra caution.